Time;durP1;ratioP1;P1;durP2;ratioP2;P2;SDS_P1;SDS_P2;PMS_P1;PMS_P2;Temp;Humidity;BMP_temperature;BMP_pressure;BME280_temperature;BME280_humidity;BME280_pressure;Samples;Min_cycle;Max_cycle;Signal;HPM_P1;HPM_P2
2022/03/24 00:01:46;;;;;;;69.18;40.30;;;;;;;;;;5082813;28;20563;-85
2022/03/24 00:04:12;;;;;;;67.15;40.22;;;;;;;;;;5082262;28;20075;-85
2022/03/24 00:06:38;;;;;;;71.03;38.83;;;;;;;;;;5098882;28;20079;-85
2022/03/24 00:09:05;;;;;;;62.67;38.83;;;;;;;;;;5082443;28;20043;-85
2022/03/24 00:11:31;;;;;;;62.22;39.63;;;;;;;;;;5099710;28;20043;-85
2022/03/24 00:13:57;;;;;;;60.42;36.75;;;;;;;;;;5082531;28;20442;-85
2022/03/24 00:16:24;;;;;;;63.13;39.13;;;;;;;;;;5081567;28;20043;-85
2022/03/24 00:18:50;;;;;;;62.78;38.33;;;;;;;;;;5081671;28;20197;-85
2022/03/24 00:21:16;;;;;;;60.38;38.05;;;;;;;;;;5098500;28;20050;-84
2022/03/24 00:23:43;;;;;;;62.72;35.47;;;;;;;;;;5098074;28;20044;-84
2022/03/24 00:26:09;;;;;;;56.40;34.75;;;;;;;;;;5081767;28;20130;-85
2022/03/24 00:28:35;;;;;;;60.17;36.33;;;;;;;;;;5081876;28;20049;-84
2022/03/24 00:31:02;;;;;;;54.65;32.60;;;;;;;;;;5082470;28;20044;-85
2022/03/24 00:33:28;;;;;;;54.60;33.63;;;;;;;;;;5098534;28;20134;-84
2022/03/24 00:35:54;;;;;;;50.15;32.90;;;;;;;;;;5081769;28;20036;-84
2022/03/24 00:38:20;;;;;;;53.70;31.50;;;;;;;;;;5098701;28;20047;-84
2022/03/24 00:40:47;;;;;;;55.15;32.28;;;;;;;;;;5098330;28;20042;-85
2022/03/24 00:43:13;;;;;;;51.03;31.35;;;;;;;;;;5081402;28;20101;-84
2022/03/24 00:45:40;;;;;;;66.05;37.33;;;;;;;;;;5081721;28;20116;-85
2022/03/24 00:48:06;;;;;;;62.15;38.90;;;;;;;;;;5081549;28;20404;-85
2022/03/24 00:50:32;;;;;;;72.88;41.42;;;;;;;;;;5098840;28;20563;-86
2022/03/24 00:52:58;;;;;;;75.78;43.17;;;;;;;;;;5082589;28;20036;-85
2022/03/24 00:55:25;;;;;;;77.28;44.40;;;;;;;;;;5081506;28;20126;-85
2022/03/24 00:57:55;;;;;;;66.03;39.05;;;;;;;;;;5083170;28;20097;-85
2022/03/24 01:00:22;;;;;;;68.88;39.47;;;;;;;;;;5098999;28;20130;-85
2022/03/24 01:02:49;;;;;;;70.63;40.30;;;;;;;;;;5098015;28;20142;-85
2022/03/24 01:05:15;;;;;;;75.88;41.90;;;;;;;;;;5081262;28;20044;-85
2022/03/24 01:07:42;;;;;;;76.65;43.58;;;;;;;;;;5081271;28;20044;-85
2022/03/24 01:10:09;;;;;;;76.47;41.80;;;;;;;;;;5081626;28;20076;-85
2022/03/24 01:12:35;;;;;;;78.88;45.05;;;;;;;;;;5097901;28;20088;-85
2022/03/24 01:15:04;;;;;;;82.25;44.90;;;;;;;;;;5080625;28;20092;-85
2022/03/24 01:17:31;;;;;;;69.30;40.55;;;;;;;;;;5097763;28;20043;-85
2022/03/24 01:19:57;;;;;;;65.22;37.72;;;;;;;;;;5098122;28;20492;-86
2022/03/24 01:22:24;;;;;;;68.63;39.03;;;;;;;;;;5080657;28;20051;-85
2022/03/24 01:24:50;;;;;;;63.78;37.50;;;;;;;;;;5097551;28;20142;-84
2022/03/24 01:27:16;;;;;;;68.78;39.20;;;;;;;;;;5080214;28;20131;-84
2022/03/24 01:29:42;;;;;;;69.15;39.53;;;;;;;;;;5097092;28;20089;-85
2022/03/24 01:32:08;;;;;;;62.50;38.90;;;;;;;;;;5081516;28;20503;-85
2022/03/24 01:34:35;;;;;;;65.00;37.63;;;;;;;;;;5081230;28;20049;-85
2022/03/24 01:37:01;;;;;;;72.30;40.35;;;;;;;;;;5081353;28;20050;-84
2022/03/24 01:39:27;;;;;;;70.20;42.78;;;;;;;;;;5081342;28;20073;-85
2022/03/24 01:41:54;;;;;;;71.50;37.70;;;;;;;;;;5098252;28;20043;-85
2022/03/24 01:44:21;;;;;;;66.22;37.20;;;;;;;;;;5098673;28;20095;-85
2022/03/24 01:46:56;;;;;;;67.88;38.75;;;;;;;;;;5081446;28;20430;-85
2022/03/24 01:49:24;;;;;;;69.18;38.63;;;;;;;;;;5097638;28;20086;-85
2022/03/24 01:51:50;;;;;;;66.82;38.00;;;;;;;;;;5115636;28;20508;-84
2022/03/24 01:54:16;;;;;;;68.60;37.88;;;;;;;;;;5080130;28;20050;-85
2022/03/24 01:56:44;;;;;;;80.22;39.65;;;;;;;;;;5080320;28;20180;-85
2022/03/24 01:59:11;;;;;;;69.43;38.85;;;;;;;;;;5097181;28;20511;-85
2022/03/24 02:01:37;;;;;;;76.60;42.63;;;;;;;;;;5097640;28;20040;-86
2022/03/24 02:04:04;;;;;;;71.72;39.40;;;;;;;;;;5096582;28;20039;-84
2022/03/24 02:06:34;;;;;;;73.45;41.08;;;;;;;;;;5079911;28;20042;-85
2022/03/24 02:09:04;;;;;;;70.65;40.15;;;;;;;;;;5096368;28;20075;-84
2022/03/24 02:11:31;;;;;;;73.07;40.35;;;;;;;;;;5096717;28;20523;-85
2022/03/24 02:13:57;;;;;;;74.65;40.17;;;;;;;;;;5079539;28;20144;-84
2022/03/24 02:16:27;;;;;;;68.97;40.60;;;;;;;;;;5079849;28;20437;-85
2022/03/24 02:18:58;;;;;;;72.63;41.20;;;;;;;;;;5096621;28;20055;-84
2022/03/24 02:21:24;;;;;;;75.85;40.95;;;;;;;;;;5079640;28;20035;-84
2022/03/24 02:23:50;;;;;;;73.28;39.30;;;;;;;;;;5096535;28;20135;-85
2022/03/24 02:26:17;;;;;;;78.43;42.30;;;;;;;;;;5080213;28;20062;-84
2022/03/24 02:28:44;;;;;;;66.90;38.35;;;;;;;;;;5079514;28;20392;-85
2022/03/24 02:31:11;;;;;;;71.35;39.10;;;;;;;;;;5096919;28;20505;-85
2022/03/24 02:33:37;;;;;;;75.72;42.70;;;;;;;;;;5096547;28;20484;-84
2022/03/24 02:36:04;;;;;;;76.63;42.08;;;;;;;;;;5079403;28;20082;-85
2022/03/24 02:38:32;;;;;;;79.90;41.92;;;;;;;;;;5096349;28;20540;-84
2022/03/24 02:40:58;;;;;;;59.40;34.45;;;;;;;;;;5096325;28;20058;-84
2022/03/24 02:43:24;;;;;;;59.28;35.13;;;;;;;;;;5079115;28;20058;-85
2022/03/24 02:45:53;;;;;;;67.20;36.03;;;;;;;;;;5079833;28;20063;-85
2022/03/24 02:48:20;;;;;;;74.53;35.58;;;;;;;;;;5080064;28;20050;-85
2022/03/24 02:50:46;;;;;;;73.32;39.38;;;;;;;;;;5095987;28;20589;-84
2022/03/24 02:53:12;;;;;;;65.43;35.55;;;;;;;;;;5079121;28;20492;-86
2022/03/24 02:55:38;;;;;;;60.47;33.75;;;;;;;;;;5096335;28;20058;-85
2022/03/24 02:58:04;;;;;;;65.45;36.55;;;;;;;;;;5079435;28;20507;-85
2022/03/24 03:00:30;;;;;;;67.40;36.95;;;;;;;;;;5079516;28;20051;-84
2022/03/24 03:02:56;;;;;;;73.28;40.28;;;;;;;;;;5096349;28;20075;-85
2022/03/24 03:05:23;;;;;;;83.50;41.45;;;;;;;;;;5095986;28;20075;-85
2022/03/24 03:07:51;;;;;;;68.10;38.20;;;;;;;;;;5095669;28;20089;-85
2022/03/24 03:10:18;;;;;;;74.70;42.13;;;;;;;;;;5079257;28;20545;-85
2022/03/24 03:12:46;;;;;;;73.03;41.40;;;;;;;;;;5096076;28;20043;-85
2022/03/24 03:15:12;;;;;;;73.30;40.90;;;;;;;;;;5079292;28;20048;-85
2022/03/24 03:17:38;;;;;;;79.95;41.40;;;;;;;;;;5078929;28;20044;-85
2022/03/24 03:20:06;;;;;;;73.15;37.90;;;;;;;;;;5095900;28;20047;-85
2022/03/24 03:22:32;;;;;;;65.72;37.17;;;;;;;;;;5079115;28;20059;-85
2022/03/24 03:24:59;;;;;;;58.25;34.53;;;;;;;;;;5095880;28;20506;-85
2022/03/24 03:27:27;;;;;;;61.83;33.38;;;;;;;;;;5078660;28;20078;-85
2022/03/24 03:29:53;;;;;;;62.08;33.25;;;;;;;;;;5080142;28;20047;-85
2022/03/24 03:32:21;;;;;;;54.35;33.00;;;;;;;;;;5079313;28;20130;-85
2022/03/24 03:34:49;;;;;;;55.90;30.55;;;;;;;;;;5079950;28;20048;-85
2022/03/24 03:37:16;;;;;;;53.72;30.20;;;;;;;;;;5096612;28;20047;-85
2022/03/24 03:39:42;;;;;;;54.17;33.17;;;;;;;;;;5095931;28;20093;-85
2022/03/24 03:42:08;;;;;;;69.05;36.17;;;;;;;;;;5079492;28;20044;-85
2022/03/24 03:44:34;;;;;;;64.82;36.55;;;;;;;;;;5079500;28;20059;-85
2022/03/24 03:47:01;;;;;;;72.18;40.33;;;;;;;;;;5095692;28;20054;-85
2022/03/24 03:49:28;;;;;;;79.50;41.53;;;;;;;;;;5095666;28;20044;-85
2022/03/24 03:51:55;;;;;;;81.20;40.92;;;;;;;;;;5081269;28;20043;-85
2022/03/24 03:54:21;;;;;;;86.00;41.78;;;;;;;;;;5100908;28;20060;-85
2022/03/24 03:56:47;;;;;;;83.95;42.22;;;;;;;;;;5082558;28;20047;-85
2022/03/24 03:59:13;;;;;;;79.82;43.05;;;;;;;;;;5099529;28;20047;-85
2022/03/24 04:01:39;;;;;;;78.00;41.40;;;;;;;;;;5099207;28;20050;-86
2022/03/24 04:04:12;;;;;;;66.82;38.17;;;;;;;;;;5082372;28;20044;-85
2022/03/24 04:06:38;;;;;;;72.40;37.30;;;;;;;;;;5082522;28;20098;-85
2022/03/24 04:09:04;;;;;;;71.03;39.08;;;;;;;;;;5081807;28;20407;-85
2022/03/24 04:11:30;;;;;;;68.35;37.28;;;;;;;;;;5082121;28;20445;-85
2022/03/24 04:13:56;;;;;;;57.28;32.20;;;;;;;;;;5098683;28;20031;-85
2022/03/24 04:16:22;;;;;;;55.55;32.40;;;;;;;;;;5082215;28;20131;-85
2022/03/24 04:18:49;;;;;;;49.00;29.63;;;;;;;;;;5082136;28;20047;-85
2022/03/24 04:21:16;;;;;;;43.40;26.70;;;;;;;;;;5098893;28;20052;-85
2022/03/24 04:23:43;;;;;;;35.38;21.42;;;;;;;;;;5098803;28;20054;-85
2022/03/24 04:26:12;;;;;;;35.88;21.73;;;;;;;;;;5082260;28;20434;-86
2022/03/24 04:28:39;;;;;;;52.60;31.27;;;;;;;;;;5098611;28;20050;-86
2022/03/24 04:31:05;;;;;;;59.08;31.92;;;;;;;;;;5082449;28;20043;-85
2022/03/24 04:33:32;;;;;;;58.15;32.88;;;;;;;;;;5081675;28;20050;-85
2022/03/24 04:35:59;;;;;;;55.85;30.80;;;;;;;;;;5098844;28;20082;-85
2022/03/24 04:38:26;;;;;;;65.55;34.17;;;;;;;;;;5082029;28;20043;-85
2022/03/24 04:40:53;;;;;;;75.05;37.17;;;;;;;;;;5098584;28;20123;-85
2022/03/24 04:43:19;;;;;;;122.82;44.35;;;;;;;;;;5081354;28;20582;-85
2022/03/24 04:45:45;;;;;;;80.55;40.40;;;;;;;;;;5081930;28;20048;-86
2022/03/24 04:48:11;;;;;;;81.55;37.75;;;;;;;;;;5082149;28;20107;-85
2022/03/24 04:50:37;;;;;;;65.93;36.97;;;;;;;;;;5081557;28;20043;-85
2022/03/24 04:53:04;;;;;;;60.78;34.85;;;;;;;;;;5081567;28;20043;-86
2022/03/24 04:55:30;;;;;;;66.13;35.22;;;;;;;;;;5083378;28;20036;-85
2022/03/24 04:57:56;;;;;;;61.22;34.20;;;;;;;;;;5099958;28;20556;-86
2022/03/24 05:00:22;;;;;;;60.88;34.72;;;;;;;;;;5099805;28;20035;-87
2022/03/24 05:02:48;;;;;;;59.40;33.25;;;;;;;;;;5100081;28;20036;-86
2022/03/24 05:05:17;;;;;;;58.50;32.90;;;;;;;;;;5100087;28;20055;-86
2022/03/24 05:07:43;;;;;;;60.17;35.25;;;;;;;;;;5098575;28;20050;-86
2022/03/24 05:10:10;;;;;;;56.58;33.90;;;;;;;;;;5082052;28;20055;-86
2022/03/24 05:12:39;;;;;;;78.57;35.50;;;;;;;;;;5081573;28;20182;-87
2022/03/24 05:15:06;;;;;;;51.17;29.70;;;;;;;;;;5097891;28;20052;-86
2022/03/24 05:17:32;;;;;;;65.47;31.38;;;;;;;;;;5081049;28;20153;-86
2022/03/24 05:19:58;;;;;;;212.23;38.15;;;;;;;;;;5080610;28;20078;-86
2022/03/24 05:22:25;;;;;;;55.38;29.83;;;;;;;;;;5080688;28;20055;-86
2022/03/24 05:24:51;;;;;;;80.07;30.00;;;;;;;;;;5082096;28;20047;-86
2022/03/24 05:27:20;;;;;;;45.28;26.95;;;;;;;;;;5082852;28;20048;-86
2022/03/24 05:29:46;;;;;;;52.40;32.05;;;;;;;;;;5098650;28;20051;-86
2022/03/24 05:32:12;;;;;;;184.43;41.22;;;;;;;;;;5081810;28;20569;-86
2022/03/24 05:34:38;;;;;;;60.08;33.90;;;;;;;;;;5099924;28;20053;-85
2022/03/24 05:37:04;;;;;;;73.40;33.25;;;;;;;;;;5082004;28;20042;-85
2022/03/24 05:39:31;;;;;;;135.68;35.17;;;;;;;;;;5117227;28;20077;-85
2022/03/24 05:41:58;;;;;;;103.03;33.60;;;;;;;;;;5116902;28;20047;-85
2022/03/24 05:44:24;;;;;;;260.42;42.00;;;;;;;;;;5082405;28;20062;-85
2022/03/24 05:46:51;;;;;;;206.10;37.03;;;;;;;;;;5083588;28;20131;-85
2022/03/24 05:49:19;;;;;;;41.30;27.60;;;;;;;;;;5098699;28;20054;-85
2022/03/24 05:51:46;;;;;;;47.83;29.45;;;;;;;;;;5099734;28;20054;-85
2022/03/24 05:54:14;;;;;;;47.40;27.73;;;;;;;;;;5082457;28;20044;-85
2022/03/24 05:56:41;;;;;;;47.10;29.25;;;;;;;;;;5082607;28;20353;-85
2022/03/24 05:59:07;;;;;;;44.75;28.00;;;;;;;;;;5099477;28;20050;-85
2022/03/24 06:01:34;;;;;;;47.50;29.23;;;;;;;;;;5100186;28;20069;-85
2022/03/24 06:04:01;;;;;;;37.83;24.35;;;;;;;;;;5098957;28;20519;-85
2022/03/24 06:06:27;;;;;;;38.35;26.05;;;;;;;;;;5116808;28;20097;-85
2022/03/24 06:08:57;;;;;;;39.17;25.80;;;;;;;;;;5097612;28;20056;-85
2022/03/24 06:11:24;;;;;;;49.78;30.05;;;;;;;;;;5116977;28;20044;-84
2022/03/24 06:13:51;;;;;;;43.38;26.85;;;;;;;;;;5115575;28;20046;-83
2022/03/24 06:16:17;;;;;;;61.42;23.77;;;;;;;;;;5098905;28;20051;-84
2022/03/24 06:18:44;;;;;;;39.20;23.75;;;;;;;;;;5115863;28;20039;-84
2022/03/24 06:21:10;;;;;;;165.18;32.20;;;;;;;;;;5116307;28;20047;-85
2022/03/24 06:23:36;;;;;;;79.80;27.17;;;;;;;;;;5098040;28;20047;-84
2022/03/24 06:26:02;;;;;;;41.83;27.10;;;;;;;;;;5116325;28;20047;-83
2022/03/24 06:28:28;;;;;;;39.05;26.33;;;;;;;;;;5115821;28;20127;-85
2022/03/24 06:30:54;;;;;;;46.97;26.73;;;;;;;;;;5080716;28;20054;-84
2022/03/24 06:33:21;;;;;;;40.65;26.85;;;;;;;;;;5097812;28;20139;-84
2022/03/24 06:35:48;;;;;;;38.63;25.52;;;;;;;;;;5096805;28;20043;-84
2022/03/24 06:38:15;;;;;;;44.00;24.77;;;;;;;;;;5115000;28;20039;-83
2022/03/24 06:40:41;;;;;;;47.55;28.08;;;;;;;;;;5114861;28;20108;-84
2022/03/24 06:43:08;;;;;;;40.25;24.20;;;;;;;;;;5097004;28;20078;-84
2022/03/24 06:45:34;;;;;;;46.05;25.55;;;;;;;;;;5096056;28;20060;-85
2022/03/24 06:48:01;;;;;;;43.05;25.95;;;;;;;;;;5079218;28;20044;-84
2022/03/24 06:50:27;;;;;;;48.05;27.33;;;;;;;;;;5079377;28;20044;-84
2022/03/24 06:52:53;;;;;;;39.80;25.58;;;;;;;;;;5079495;28;20046;-84
2022/03/24 06:55:19;;;;;;;70.35;29.05;;;;;;;;;;5097567;28;20050;-84
2022/03/24 06:57:46;;;;;;;52.63;26.83;;;;;;;;;;5115019;28;20036;-84
2022/03/24 07:00:12;;;;;;;43.53;24.23;;;;;;;;;;5115195;28;20047;-85
2022/03/24 07:02:38;;;;;;;51.83;28.00;;;;;;;;;;5079313;28;20039;-84
2022/03/24 07:05:04;;;;;;;45.72;27.48;;;;;;;;;;5097636;28;20142;-85
2022/03/24 07:07:30;;;;;;;43.20;25.95;;;;;;;;;;5078658;28;20036;-84
2022/03/24 07:09:56;;;;;;;52.17;27.70;;;;;;;;;;5096521;28;20126;-84
2022/03/24 07:12:22;;;;;;;52.05;29.27;;;;;;;;;;5079225;28;20079;-84
2022/03/24 07:14:49;;;;;;;55.65;31.02;;;;;;;;;;5079454;28;20066;-84
2022/03/24 07:17:15;;;;;;;70.93;36.20;;;;;;;;;;5096307;28;20054;-84
2022/03/24 07:19:41;;;;;;;91.75;43.38;;;;;;;;;;5096315;28;20138;-86
2022/03/24 07:22:08;;;;;;;80.18;42.17;;;;;;;;;;5096192;28;20036;-84
2022/03/24 07:24:34;;;;;;;77.28;39.45;;;;;;;;;;5079566;28;20050;-86
2022/03/24 07:27:00;;;;;;;85.50;40.38;;;;;;;;;;5098518;28;20479;-86
2022/03/24 07:29:26;;;;;;;82.25;42.75;;;;;;;;;;5083135;28;20044;-84
2022/03/24 07:31:53;;;;;;;94.20;47.10;;;;;;;;;;5100244;28;20040;-85
2022/03/24 07:34:19;;;;;;;97.07;47.85;;;;;;;;;;5083170;28;20046;-86
2022/03/24 07:36:45;;;;;;;93.20;46.63;;;;;;;;;;5082896;28;20047;-84
2022/03/24 07:39:12;;;;;;;99.95;48.95;;;;;;;;;;5083237;28;20079;-85
2022/03/24 07:41:38;;;;;;;98.78;50.53;;;;;;;;;;5083131;28;20071;-88
2022/03/24 07:44:05;;;;;;;117.63;54.55;;;;;;;;;;5082598;28;20048;-84
2022/03/24 07:46:31;;;;;;;115.78;56.85;;;;;;;;;;5083522;28;20149;-84
2022/03/24 07:48:57;;;;;;;122.10;59.13;;;;;;;;;;5101550;28;20040;-84
2022/03/24 07:51:23;;;;;;;110.55;57.05;;;;;;;;;;5082692;28;20043;-86
2022/03/24 07:53:49;;;;;;;121.97;60.50;;;;;;;;;;5083869;28;20044;-87
2022/03/24 07:56:16;;;;;;;102.10;53.25;;;;;;;;;;5082656;28;20480;-88
2022/03/24 07:58:42;;;;;;;109.50;55.70;;;;;;;;;;5117547;28;20126;-88
2022/03/24 08:01:09;;;;;;;103.13;54.47;;;;;;;;;;5083116;28;20035;-87
2022/03/24 08:03:35;;;;;;;112.32;53.15;;;;;;;;;;5118283;28;20133;-86
2022/03/24 08:06:02;;;;;;;100.43;53.28;;;;;;;;;;5082672;28;20424;-85
2022/03/24 08:08:28;;;;;;;112.63;54.25;;;;;;;;;;5082582;28;20044;-85
2022/03/24 08:10:54;;;;;;;98.55;52.20;;;;;;;;;;5082908;28;20048;-86
2022/03/24 08:13:21;;;;;;;95.25;52.13;;;;;;;;;;5082250;28;20036;-85
2022/03/24 08:15:47;;;;;;;93.32;50.20;;;;;;;;;;5082344;28;20047;-86
2022/03/24 08:18:14;;;;;;;100.32;51.45;;;;;;;;;;5082942;28;20039;-87
2022/03/24 08:20:42;;;;;;;93.57;51.55;;;;;;;;;;5117596;28;20046;-85
2022/03/24 08:23:08;;;;;;;104.05;50.83;;;;;;;;;;5117548;28;20043;-86
2022/03/24 08:25:35;;;;;;;94.18;51.28;;;;;;;;;;5099253;28;20043;-90
2022/03/24 08:28:02;;;;;;;99.03;53.67;;;;;;;;;;5118238;28;20073;-86
2022/03/24 08:30:28;;;;;;;91.70;50.28;;;;;;;;;;5082878;28;20077;-87
2022/03/24 08:32:54;;;;;;;90.65;48.40;;;;;;;;;;5099091;28;20070;-87
2022/03/24 08:35:20;;;;;;;90.45;49.47;;;;;;;;;;5099461;28;20047;-86
2022/03/24 08:37:46;;;;;;;89.55;49.85;;;;;;;;;;5099306;28;20067;-88
2022/03/24 08:40:13;;;;;;;87.57;49.55;;;;;;;;;;5083099;28;20477;-89
2022/03/24 08:42:40;;;;;;;83.50;47.55;;;;;;;;;;5082171;28;20066;-89
2022/03/24 08:45:07;;;;;;;81.88;45.60;;;;;;;;;;5081452;28;20062;-88
2022/03/24 08:47:33;;;;;;;87.55;48.22;;;;;;;;;;5081458;28;20047;-88
2022/03/24 08:49:59;;;;;;;82.38;47.08;;;;;;;;;;5099748;28;20044;-88
2022/03/24 08:52:27;;;;;;;81.82;45.10;;;;;;;;;;5098687;28;20050;-86
2022/03/24 08:54:54;;;;;;;82.88;46.40;;;;;;;;;;5117116;28;20053;-88
2022/03/24 08:57:26;;;;;;;93.07;49.53;;;;;;;;;;5081917;28;20473;-87
2022/03/24 08:59:56;;;;;;;86.93;45.08;;;;;;;;;;5098125;28;20127;-86
2022/03/24 09:02:22;;;;;;;83.13;43.40;;;;;;;;;;5081132;28;20086;-87
2022/03/24 09:04:49;;;;;;;74.22;44.83;;;;;;;;;;5081441;28;20131;-85
2022/03/24 09:07:15;;;;;;;80.90;46.35;;;;;;;;;;5081223;28;20130;-87
2022/03/24 09:09:41;;;;;;;70.55;41.70;;;;;;;;;;5082066;28;20484;-87
2022/03/24 09:12:09;;;;;;;70.07;41.33;;;;;;;;;;5082020;28;20039;-87
2022/03/24 09:14:36;;;;;;;72.07;42.55;;;;;;;;;;5081353;28;20039;-87
2022/03/24 09:17:02;;;;;;;65.65;39.25;;;;;;;;;;5081394;28;20032;-87
2022/03/24 09:19:29;;;;;;;70.35;42.05;;;;;;;;;;5081366;28;20049;-86
2022/03/24 09:21:55;;;;;;;71.75;41.15;;;;;;;;;;5081442;28;20083;-86
2022/03/24 09:24:21;;;;;;;73.82;42.75;;;;;;;;;;5116260;28;20058;-86
2022/03/24 09:26:50;;;;;;;71.60;40.38;;;;;;;;;;5097916;28;20040;-86
2022/03/24 09:29:19;;;;;;;63.33;39.05;;;;;;;;;;5081214;28;20409;-87
2022/03/24 09:31:47;;;;;;;68.40;39.85;;;;;;;;;;5081938;28;20043;-86
2022/03/24 09:34:13;;;;;;;72.20;41.70;;;;;;;;;;5080808;28;20149;-87
2022/03/24 09:36:39;;;;;;;79.80;41.65;;;;;;;;;;5098531;28;20107;-87
2022/03/24 09:39:07;;;;;;;74.13;40.08;;;;;;;;;;5097908;28;20056;-88
2022/03/24 09:41:37;;;;;;;73.22;38.95;;;;;;;;;;5081140;28;20054;-89
2022/03/24 09:44:04;;;;;;;72.93;39.22;;;;;;;;;;5080007;28;20063;-87
2022/03/24 09:46:31;;;;;;;65.55;40.53;;;;;;;;;;5097474;28;20515;-87
2022/03/24 09:48:58;;;;;;;67.22;38.95;;;;;;;;;;5079111;28;20039;-87
2022/03/24 09:51:25;;;;;;;65.68;39.72;;;;;;;;;;5115599;28;20450;-90
2022/03/24 09:53:51;;;;;;;61.55;39.65;;;;;;;;;;5080251;28;20043;-88
2022/03/24 09:56:17;;;;;;;69.25;41.25;;;;;;;;;;5081547;28;20050;-87
2022/03/24 09:58:44;;;;;;;69.78;42.53;;;;;;;;;;5080016;28;20043;-88
2022/03/24 10:01:13;;;;;;;65.03;40.05;;;;;;;;;;5080484;28;20032;-88
2022/03/24 10:03:39;;;;;;;65.78;38.45;;;;;;;;;;5081538;28;20058;-88
2022/03/24 10:06:10;;;;;;;57.90;37.10;;;;;;;;;;5080255;28;20476;-87
2022/03/24 10:08:37;;;;;;;59.83;36.33;;;;;;;;;;5080677;28;20047;-86
2022/03/24 10:11:08;;;;;;;66.78;37.60;;;;;;;;;;5079911;28;20407;-87
2022/03/24 10:13:43;;;;;;;69.93;37.92;;;;;;;;;;5096600;28;20079;-87
2022/03/24 10:16:10;;;;;;;67.70;37.85;;;12.50;99.90;;;;;;5097440;28;20048;-87
2022/03/24 10:18:36;;;;;;;61.83;38.95;;;;;;;;;;5080472;28;20046;-87
2022/03/24 10:21:05;;;;;;;61.33;37.58;;;;;;;;;;5097900;28;20051;-87
2022/03/24 10:23:34;;;;;;;64.70;37.88;;;;;;;;;;5079610;28;20043;-86
2022/03/24 10:26:05;;;;;;;65.00;38.03;;;;;;;;;;5079857;28;20070;-86
2022/03/24 10:28:31;;;;;;;61.47;36.40;;;;;;;;;;5114857;28;20101;-87
2022/03/24 10:30:59;;;;;;;60.50;39.97;;;13.00;99.90;;;;;;5080541;28;20120;-85
2022/03/24 10:33:33;;;;;;;60.58;37.13;;;12.90;99.90;;;;;;5115491;28;20043;-87
2022/03/24 10:36:07;;;;;;;59.03;38.28;;;;;;;;;;5079588;28;20084;-87
2022/03/24 10:38:34;;;;;;;62.08;37.30;;;;;;;;;;5079660;28;20039;-86
2022/03/24 10:41:27;;;;;;;58.95;37.17;;;13.30;99.90;;;;;;5079887;28;20044;-88
2022/03/24 10:43:55;;;;;;;50.85;33.42;;;13.50;99.90;;;;;;5076122;28;20051;-87
2022/03/24 10:46:29;;;;;;;55.58;34.50;;;13.50;99.90;;;;;;5115248;28;20047;-88
2022/03/24 10:48:55;;;;;;;52.25;32.65;;;;;;;;;;5096535;28;20121;-89
2022/03/24 10:51:29;;;;;;;51.67;31.13;;;13.50;99.90;;;;;;5079637;28;20044;-87
2022/03/24 10:54:11;;;;;;;54.80;33.53;;;;;;;;;;5096339;28;20050;-88
2022/03/24 10:56:39;;;;;;;55.15;35.92;;;13.90;99.90;;;;;;5096765;28;20055;-88
2022/03/24 10:59:05;;;;;;;53.53;34.42;;;13.80;99.90;;;;;;5079539;28;20086;-89
2022/03/24 11:01:33;;;;;;;55.35;33.58;;;13.80;99.90;;;;;;5083418;28;20100;-88
2022/03/24 11:03:59;;;;;;;56.78;32.47;;;;;;;;;;5083913;28;20555;-89
2022/03/24 11:06:27;;;;;;;52.70;32.90;;;;;;;;;;5101244;28;20519;-93
2022/03/24 11:08:57;;;;;;;60.90;35.28;;;;;;;;;;5120661;28;20496;-86
2022/03/24 11:11:24;;;;;;;53.55;33.03;;;;;;;;;;5120580;28;20131;-88
2022/03/24 11:13:58;;;;;;;54.35;33.03;;;14.20;99.90;;;;;;5085496;28;20023;-88
2022/03/24 11:16:30;;;;;;;50.97;30.63;;;14.40;99.90;;;;;;5120357;28;20044;-87
2022/03/24 11:18:58;;;;;;;50.10;30.05;;;14.10;99.90;;;;;;5102688;28;20043;-86
2022/03/24 11:21:39;;;;;;;50.63;31.67;;;14.10;99.90;;;;;;5085942;28;20075;-89
2022/03/24 11:24:05;;;;;;;46.10;31.13;;;14.30;99.90;;;;;;5084595;28;20044;-88
2022/03/24 11:26:33;;;;;;;51.90;30.40;;;14.20;99.90;;;;;;5119960;28;20131;-90
2022/03/24 11:28:59;;;;;;;44.90;30.88;;;;;;;;;;5119269;28;20055;-87
2022/03/24 11:31:31;;;;;;;49.13;31.98;;;14.50;99.90;;;;;;5084013;28;20062;-86
2022/03/24 11:34:00;;;;;;;46.40;30.60;;;14.40;99.90;;;;;;5101167;28;20126;-87
2022/03/24 11:36:27;;;;;;;51.90;31.40;;;;;;;;;;5084138;28;20054;-88
2022/03/24 11:39:05;;;;;;;46.13;29.98;;;14.50;99.90;;;;;;5084392;28;20071;-90
2022/03/24 11:41:34;;;;;;;44.80;27.17;;;;;;;;;;5119265;28;20065;-90
2022/03/24 11:44:12;;;;;;;45.00;29.50;;;14.60;99.90;;;;;;5097448;28;20059;-88
2022/03/24 11:46:41;;;;;;;42.45;28.10;;;;;;;;;;5098303;28;20473;-87
2022/03/24 11:49:28;;;;;;;43.92;31.00;;;14.60;99.90;;;;;;5096925;28;20048;-85
2022/03/24 11:51:57;;;;;;;51.83;30.83;;;;;;;;;;5097370;28;20119;-86
2022/03/24 11:54:27;;;;;;;48.65;32.60;;;14.50;99.90;;;;;;5079860;28;20079;-88
2022/03/24 11:57:21;;;;;;;45.10;29.52;;;14.60;99.90;;;;;;5096704;28;20056;-85
2022/03/24 11:59:47;;;;;;;45.43;30.27;;;;;;;;;;5096521;28;20454;-85
2022/03/24 12:02:16;;;;;;;53.55;33.45;;;14.90;99.90;;;;;;5096575;28;20287;-87
2022/03/24 12:04:46;;;;;;;49.30;29.52;;;;;;;;;;5097762;28;20050;-85
2022/03/24 12:07:20;;;;;;;55.20;32.95;;;14.80;99.90;;;;;;5097746;28;20099;-88
2022/03/24 12:10:06;;;;;;;49.85;28.92;;;15.00;99.90;;;;;;5098055;28;20400;-91
2022/03/24 12:12:32;;;;;;;48.15;30.40;;;;;;;;;;5078808;28;20047;-88
2022/03/24 12:14:59;;;;;;;46.13;32.28;;;;;;;;;;5096453;28;20047;-86
2022/03/24 12:17:31;;;;;;;43.50;30.63;;;14.90;99.90;;;;;;5096927;28;20040;-87
2022/03/24 12:20:02;;;;;;;51.50;29.13;;;15.00;99.90;;;;;;5097541;28;20092;-91
2022/03/24 12:22:36;;;;;;;46.10;30.10;;;15.00;99.90;;;;;;5096414;28;20040;-87
2022/03/24 12:25:02;;;;;;;49.20;31.35;;;;;;;;;;5096517;28;20059;-89
2022/03/24 12:27:32;;;;;;;46.15;31.08;;;15.10;99.90;;;;;;5097491;28;20076;-87
2022/03/24 12:30:16;;;;;;;56.05;31.63;;;15.10;99.90;;;;;;5079353;28;20047;-87
2022/03/24 12:32:59;;;;;;;50.58;30.85;;;15.00;99.90;;;;;;5096879;28;20044;-85
2022/03/24 12:35:46;;;;;;;52.95;32.22;;;15.20;99.90;;;;;;5096982;28;20401;-89
2022/03/24 12:38:21;;;;;;;49.55;33.42;;;;;;;;;;5096888;28;20101;-86
2022/03/24 12:41:06;;;;;;;46.05;31.88;;;;;;;;;;5097007;28;20075;-87
2022/03/24 12:44:10;;;;;;;53.65;33.35;;;15.30;99.90;;;;;;5096557;28;20044;-87
2022/03/24 12:46:36;;;;;;;55.20;34.92;;;;;;;;;;4998599;28;20046;-86
2022/03/24 12:49:08;;;;;;;53.65;32.28;;;;;;;;;;4982410;28;20042;-88
2022/03/24 12:51:34;;;;;;;50.97;33.47;;;;;;;;;;4982838;28;20369;-89
2022/03/24 12:54:14;;;;;;;56.63;34.45;;;15.30;99.90;;;;;;4998464;28;20446;-88
2022/03/24 12:56:43;;;;;;;53.33;33.47;;;15.40;99.90;;;;;;4982343;28;20054;-87
2022/03/24 12:59:10;;;;;;;51.65;33.30;;;15.50;99.90;;;;;;4982862;28;20141;-87
2022/03/24 13:01:37;;;;;;;55.47;35.17;;;15.40;99.90;;;;;;4982397;28;20038;-93
2022/03/24 13:04:09;;;;;;;51.60;34.67;;;15.60;99.90;;;;;;5014282;28;20494;-89
2022/03/24 13:06:38;;;;;;;51.92;34.55;;;15.60;99.90;;;;;;4997834;28;20054;-88
2022/03/24 13:09:17;;;;;;;55.63;35.10;;;15.60;99.90;;;;;;5013752;28;20091;-88
2022/03/24 13:12:02;;;;;;;55.47;35.00;;;;;;;;;;4997612;28;20127;-90
2022/03/24 13:14:30;;;;;;;56.83;37.35;;;15.50;99.90;;;;;;5014592;28;20484;-90
2022/03/24 13:17:01;;;;;;;54.38;35.30;;;15.40;99.90;;;;;;5032202;28;20435;-88
2022/03/24 13:19:28;;;;;;;53.03;36.03;;;;;;;;;;5116794;28;20044;-92
2022/03/24 13:21:54;;;;;;;54.47;35.75;;;;;;;;;;5117043;28;20075;-88
2022/03/24 13:24:25;;;;;;;50.55;33.95;;;15.70;99.90;;;;;;5081693;28;20046;-88
2022/03/24 13:27:01;;;;;;;52.78;35.45;;;15.60;99.90;;;;;;5117069;28;20043;-90
2022/03/24 13:29:36;;;;;;;52.60;33.33;;;15.60;99.90;;;;;;5082514;28;20054;-90
2022/03/24 13:32:19;;;;;;;55.72;33.58;;;15.50;99.90;;;;;;5099897;28;20047;-90
2022/03/24 13:34:54;;;;;;;54.30;35.45;;;15.50;99.90;;;;;;5100806;28;20408;-91
2022/03/24 13:37:42;;;;;;;53.75;34.28;;;15.40;99.90;;;;;;5082113;28;20043;-88
2022/03/24 13:40:11;;;;;;;47.35;32.67;;;15.70;99.90;;;;;;5081622;28;20096;-90
2022/03/24 13:42:38;;;;;;;53.15;34.00;;;15.70;99.90;;;;;;5099006;28;20044;-90
2022/03/24 13:45:05;;;;;;;61.80;35.63;;;;;;;;;;5095860;28;20177;-89
2022/03/24 13:47:32;;;;;;;50.28;32.40;;;15.60;99.90;;;;;;5082306;28;20044;-90
2022/03/24 13:50:05;;;;;;;55.22;33.53;;;15.40;99.90;;;;;;5097323;28;20059;-87
2022/03/24 13:52:32;;;;;;;47.60;31.92;;;15.80;99.90;;;;;;5099207;28;20058;-86
2022/03/24 13:55:19;;;;;;;45.50;30.15;;;15.60;99.90;;;;;;5100406;28;20047;-90
2022/03/24 13:57:56;;;;;;;52.83;33.83;;;15.50;99.90;;;;;;5082278;28;20172;-90
2022/03/24 14:00:45;;;;;;;52.15;30.98;;;15.60;99.90;;;;;;5103270;28;20075;-89
2022/03/24 14:03:14;;;;;;;52.22;32.40;;;15.30;99.90;;;;;;5101862;28;20052;-89